createdAt,value
2018-09-03T00:02:05.513Z,98265.47
2018-09-03T00:04:35.171Z,98260.47
2018-09-03T00:07:05.257Z,98276.43
2018-09-03T00:09:41.582Z,98286.16
2018-09-03T00:12:12.226Z,98283.52
2018-09-03T00:14:42.005Z,98284.70
2018-09-03T00:17:11.599Z,98274.69
2018-09-03T00:19:41.278Z,98283.42
2018-09-03T00:22:10.807Z,98294.79
2018-09-03T00:24:40.370Z,98299.73
2018-09-03T00:27:10.242Z,98301.05
2018-09-03T00:29:40.427Z,98311.46
2018-09-03T00:32:15.269Z,98316.87
2018-09-03T00:34:50.183Z,98315.20
2018-09-03T00:37:25.211Z,98320.83
2018-09-03T00:40:00.086Z,98325.74
2018-09-03T00:42:34.865Z,98324.78
2018-09-03T00:45:09.744Z,98331.56
2018-09-03T00:47:39.270Z,98333.13
2018-09-03T00:50:09.010Z,98338.40
2018-09-03T00:52:38.740Z,98333.48
2018-09-03T00:55:08.663Z,98342.22
2018-09-03T00:57:38.735Z,98342.44
2018-09-03T01:00:08.884Z,98342.72
2018-09-03T01:02:38.578Z,98333.13
2018-09-03T01:05:08.630Z,98332.03
2018-09-03T01:07:38.301Z,98325.98
2018-09-03T01:10:09.019Z,98328.26
2018-09-03T01:12:38.595Z,98325.48
2018-09-03T01:15:08.167Z,98322.10
2018-09-03T01:17:37.972Z,98314.33
2018-09-03T01:20:07.967Z,98310.84
2018-09-03T01:22:37.608Z,98312.02
2018-09-03T01:25:07.299Z,98308.92
2018-09-03T01:27:36.999Z,98312.30
2018-09-03T01:30:07.323Z,98310.80
2018-09-03T01:32:36.943Z,98313.08
2018-09-03T01:35:06.551Z,98304.48
2018-09-03T01:37:36.273Z,98300.03
2018-09-03T01:40:05.951Z,98293.44
2018-09-03T01:42:35.611Z,98291.55
2018-09-03T01:45:05.758Z,98275.73
2018-09-03T01:47:35.698Z,98274.73
2018-09-03T01:50:05.615Z,98276.55
2018-09-03T01:52:35.259Z,98286.49
2018-09-03T01:55:05.034Z,98283.25
2018-09-03T01:57:34.783Z,98283.58
2018-09-03T02:00:04.709Z,98281.80
2018-09-03T02:02:34.307Z,98285.75
2018-09-03T02:05:04.272Z,98279.30
2018-09-03T02:07:33.962Z,98282.64
2018-09-03T02:10:04.063Z,98279.58
2018-09-03T02:12:33.823Z,98270.21
2018-09-03T02:15:03.642Z,98268.89
2018-09-03T02:17:33.163Z,98270.89
2018-09-03T02:20:02.867Z,98271.57
2018-09-03T02:22:32.471Z,98267.61
2018-09-03T02:25:02.182Z,98261.88
2018-09-03T02:27:31.710Z,98264.52
2018-09-03T02:30:01.226Z,98263.66
2018-09-03T02:32:30.756Z,98262.48
2018-09-03T02:35:00.291Z,98256.53
2018-09-03T02:37:29.823Z,98256.88
2018-09-03T02:39:59.347Z,98254.58
2018-09-03T02:42:28.863Z,98252.30
2018-09-03T02:44:58.395Z,98251.33
2018-09-03T02:47:27.918Z,98251.47
2018-09-03T02:49:57.418Z,98248.83
2018-09-03T02:52:27.327Z,98251.80
2018-09-03T02:54:56.848Z,98252.65
2018-09-03T02:57:26.635Z,98257.78
2018-09-03T02:59:56.229Z,98251.66
2018-09-03T03:02:25.996Z,98235.83
2018-09-03T03:04:55.530Z,98236.55
2018-09-03T03:07:25.182Z,98230.92
2018-09-03T03:09:54.963Z,98232.09
2018-09-03T03:12:25.989Z,98228.14
2018-09-03T03:14:57.018Z,98223.83
2018-09-03T03:17:27.302Z,98218.09
2018-09-03T03:19:57.095Z,98226.46
2018-09-03T03:22:27.026Z,98227.17
2018-09-03T03:24:57.119Z,98230.14
2018-09-03T03:27:26.847Z,98226.03
2018-09-03T03:29:56.562Z,98221.62
2018-09-03T03:32:26.383Z,98217.66
2018-09-03T03:34:56.383Z,98221.62
2018-09-03T03:37:26.450Z,98222.44
2018-09-03T03:39:55.988Z,98222.44
2018-09-03T03:42:25.639Z,98221.48
2018-09-03T03:44:55.541Z,98212.71
2018-09-03T03:47:25.210Z,98217.52
2018-09-03T03:49:55.080Z,98214.38
2018-09-03T03:52:24.727Z,98217.70
2018-09-03T03:54:54.477Z,98214.92
2018-09-03T03:57:24.383Z,98213.45
2018-09-03T03:59:54.031Z,98213.45
2018-09-03T04:02:23.780Z,98202.91
2018-09-03T04:04:53.406Z,98190.36
2018-09-03T04:07:22.939Z,98191.68
2018-09-03T04:09:52.723Z,98193.82
2018-09-03T04:12:22.408Z,98193.21
2018-09-03T04:14:52.075Z,98189.72
2018-09-03T04:17:21.719Z,98192.86
2018-09-03T04:20:05.922Z,98187.23
2018-09-03T04:22:35.451Z,98193.36
2018-09-03T04:25:04.987Z,98188.08
2018-09-03T04:27:34.554Z,98188.41
2018-09-03T04:30:04.663Z,98190.01
2018-09-03T04:32:34.223Z,98193.14
2018-09-03T04:35:04.008Z,98202.37
2018-09-03T04:37:33.645Z,98196.28
2018-09-03T04:40:03.359Z,98206.08
2018-09-03T04:42:33.280Z,98213.63
2018-09-03T04:45:03.011Z,98214.45
2018-09-03T04:47:32.694Z,98215.48
2018-09-03T04:50:02.283Z,98216.34
2018-09-03T04:52:32.354Z,98213.56
2018-09-03T04:55:02.665Z,98210.28
2018-09-03T04:57:32.462Z,98205.69
2018-09-03T05:00:02.483Z,98194.53
2018-09-03T05:02:32.203Z,98198.95
2018-09-03T05:05:01.888Z,98212.84
2018-09-03T05:07:31.694Z,98212.99
2018-09-03T05:10:01.224Z,98205.26
2018-09-03T05:12:30.931Z,98210.21
2018-09-03T05:15:00.528Z,98218.41
2018-09-03T05:17:30.461Z,98209.79
2018-09-03T05:20:00.237Z,98220.05
2018-09-03T05:22:30.060Z,98221.37
2018-09-03T05:24:59.826Z,98223.40
2018-09-03T05:27:29.465Z,98217.48
2018-09-03T05:29:59.362Z,98221.01
2018-09-03T05:32:29.182Z,98221.54
2018-09-03T05:34:59.012Z,98217.80
2018-09-03T05:37:28.704Z,98213.20
2018-09-03T05:39:58.434Z,98217.36
2018-09-03T05:42:28.029Z,98217.22
2018-09-03T05:44:57.965Z,98213.12
2018-09-03T05:47:27.652Z,98215.11
2018-09-03T05:49:57.584Z,98218.92
2018-09-03T05:52:27.178Z,98221.42
2018-09-03T05:54:57.011Z,98215.03
2018-09-03T05:57:26.831Z,98219.52
2018-09-03T05:59:56.495Z,98218.05
2018-09-03T06:02:26.287Z,98218.27
2018-09-03T06:04:56.322Z,98219.91
2018-09-03T06:07:26.167Z,98211.70
2018-09-03T06:09:55.837Z,98217.03
2018-09-03T06:12:25.506Z,98220.20
2018-09-03T06:14:55.052Z,98213.67
2018-09-03T06:17:24.650Z,98213.23
2018-09-03T06:19:54.272Z,98215.08
2018-09-03T06:22:23.915Z,98222.50
2018-09-03T06:24:53.899Z,98223.67
2018-09-03T06:27:23.548Z,98213.96
2018-09-03T06:29:53.443Z,98220.88
2018-09-03T06:32:23.085Z,98215.60
2018-09-03T06:34:52.731Z,98224.38
2018-09-03T06:37:22.466Z,98219.77
2018-09-03T06:39:52.151Z,98215.31
2018-09-03T06:42:21.824Z,98216.48
2018-09-03T06:44:51.520Z,98221.61
2018-09-03T06:47:21.250Z,98220.64
2018-09-03T06:49:51.016Z,98226.89
2018-09-03T06:52:20.724Z,98230.39
2018-09-03T06:54:50.446Z,98230.70
2018-09-03T06:57:20.041Z,98220.88
2018-09-03T06:59:50.000Z,98220.73
2018-09-03T07:02:19.635Z,98217.16
2018-09-03T07:04:50.193Z,98205.03
2018-09-03T07:07:19.991Z,98204.83
2018-09-03T07:09:49.666Z,98198.74
2018-09-03T07:12:19.356Z,98203.33
2018-09-03T07:14:48.927Z,98206.09
2018-09-03T07:17:18.623Z,98207.50
2018-09-03T07:19:48.339Z,98199.62
2018-09-03T07:22:17.846Z,98197.91
2018-09-03T07:24:47.454Z,98198.88
2018-09-03T07:27:17.134Z,98199.07
2018-09-03T07:29:46.872Z,98197.08
2018-09-03T07:32:16.611Z,98197.40
2018-09-03T07:34:46.403Z,98197.08
2018-09-03T07:37:16.246Z,98196.22
2018-09-03T07:39:45.886Z,98198.97
2018-09-03T07:42:15.603Z,98192.00
2018-09-03T07:44:45.313Z,98192.92
2018-09-03T07:47:15.112Z,98196.68
2018-09-03T07:49:44.750Z,98201.14
2018-09-03T07:52:14.526Z,98207.41
2018-09-03T07:54:44.181Z,98201.80
2018-09-03T07:57:13.921Z,98199.00
2018-09-03T07:59:43.495Z,98206.59
2018-09-03T08:02:13.178Z,98203.14
2018-09-03T08:04:42.990Z,98208.79
2018-09-03T08:07:12.811Z,98210.00
2018-09-03T08:09:42.706Z,98210.52
2018-09-03T08:12:12.427Z,98207.36
2018-09-03T08:14:42.304Z,98210.56
2018-09-03T08:17:11.843Z,98213.57
2018-09-03T08:19:41.408Z,98216.34
2018-09-03T08:22:11.194Z,98218.68
2018-09-03T08:24:40.783Z,98217.10
2018-09-03T08:27:10.358Z,98218.16
2018-09-03T08:29:39.908Z,98216.22
2018-09-03T08:32:09.675Z,98212.80
2018-09-03T08:34:39.248Z,98214.31
2018-09-03T08:37:08.818Z,98207.54
2018-09-03T08:39:38.375Z,98205.71
2018-09-03T08:42:08.066Z,98202.91
2018-09-03T08:44:37.640Z,98202.09
2018-09-03T08:47:07.795Z,98189.05
2018-09-03T08:49:37.364Z,98190.44
2018-09-03T08:52:07.426Z,98194.47
2018-09-03T08:54:37.123Z,98190.11
2018-09-03T08:57:06.692Z,98187.36
2018-09-03T08:59:36.382Z,98185.08
2018-09-03T09:02:05.983Z,98184.92
2018-09-03T09:04:35.707Z,98183.27
2018-09-03T09:07:05.291Z,98182.80
2018-09-03T09:09:34.934Z,98179.53
2018-09-03T09:12:04.498Z,98178.38
2018-09-03T09:14:34.055Z,98178.71
2018-09-03T09:17:04.119Z,98175.57
2018-09-03T09:19:33.759Z,98174.05
2018-09-03T09:22:03.325Z,98176.34
2018-09-03T09:24:32.977Z,98172.03
2018-09-03T09:27:02.656Z,98171.20
2018-09-03T09:29:32.279Z,98171.56
2018-09-03T09:32:01.788Z,98169.09
2018-09-03T09:34:31.356Z,98171.23
2018-09-03T09:37:01.007Z,98172.40
2018-09-03T09:39:30.503Z,98171.42
2018-09-03T09:42:00.096Z,98172.73
2018-09-03T09:44:29.626Z,98173.89
2018-09-03T09:46:59.539Z,98170.59
2018-09-03T09:49:29.100Z,98168.60
2018-09-03T09:51:58.662Z,98169.43
2018-09-03T09:54:28.394Z,98166.27
2018-09-03T09:56:58.164Z,98166.44
2018-09-03T09:59:27.703Z,98164.11
2018-09-03T10:01:57.240Z,98163.95
2018-09-03T10:04:26.812Z,98167.59
2018-09-03T10:06:56.541Z,98166.09
2018-09-03T10:09:26.107Z,98163.14
2018-09-03T10:11:55.650Z,98169.58
2018-09-03T10:14:25.212Z,98161.80
2018-09-03T10:16:54.737Z,98165.30
2018-09-03T10:19:24.322Z,98167.28
2018-09-03T10:21:53.870Z,98170.41
2018-09-03T10:24:23.430Z,98169.75
2018-09-03T10:26:52.956Z,98169.59
2018-09-03T10:29:22.610Z,98164.80
2018-09-03T10:31:52.190Z,98161.63
2018-09-03T10:34:21.915Z,98163.64
2018-09-03T10:36:51.535Z,98164.11
2018-09-03T10:39:21.249Z,98168.94
2018-09-03T10:41:50.824Z,98165.94
2018-09-03T10:44:20.508Z,98171.73
2018-09-03T10:46:50.483Z,98169.73
2018-09-03T10:49:20.247Z,98166.58
2018-09-03T10:51:49.823Z,98163.27
2018-09-03T10:54:19.492Z,98164.59
2018-09-03T10:56:49.270Z,98162.93
2018-09-03T10:59:18.803Z,98165.74
2018-09-03T11:01:48.459Z,98166.95
2018-09-03T11:04:18.063Z,98162.95
2018-09-03T11:06:47.619Z,98168.45
2018-09-03T11:09:17.171Z,98170.75
2018-09-03T11:11:46.674Z,98169.11
2018-09-03T11:14:16.329Z,98160.14
2018-09-03T11:16:46.000Z,98161.12
2018-09-03T11:19:16.119Z,98159.33
2018-09-03T11:21:45.695Z,98160.45
2018-09-03T11:24:15.291Z,98167.89
2018-09-03T11:26:44.847Z,98169.70
2018-09-03T11:29:14.483Z,98165.56
2018-09-03T11:31:44.123Z,98164.56
2018-09-03T11:34:13.754Z,98163.42
2018-09-03T11:36:43.434Z,98162.94
2018-09-03T11:39:13.447Z,98163.09
2018-09-03T11:41:42.988Z,98161.78
2018-09-03T11:44:13.022Z,98163.30
2018-09-03T11:46:42.839Z,98160.14
2018-09-03T11:49:12.481Z,98165.46
2018-09-03T11:51:42.071Z,98163.27
2018-09-03T11:54:11.946Z,98158.12
2018-09-03T11:56:41.507Z,98161.28
2018-09-03T11:59:12.352Z,98149.68
2018-09-03T12:01:42.298Z,98159.11
2018-09-03T12:04:11.886Z,98155.81
2018-09-03T12:06:41.919Z,98161.77
2018-09-03T12:09:12.312Z,98168.42
2018-09-03T12:11:41.968Z,98172.05
2018-09-03T12:14:21.603Z,98170.41
2018-09-03T12:16:51.665Z,98164.28
2018-09-03T12:19:22.590Z,98160.30
2018-09-03T12:21:52.506Z,98152.48
2018-09-03T12:24:22.278Z,98153.99
2018-09-03T12:26:52.088Z,98148.83
2018-09-03T12:29:21.999Z,98158.78
2018-09-03T12:31:51.807Z,98157.80
2018-09-03T12:34:21.434Z,98162.09
2018-09-03T12:36:51.145Z,98163.23
2018-09-03T12:39:20.923Z,98169.84
2018-09-03T12:41:50.463Z,98170.70
2018-09-03T12:44:20.125Z,98175.33
2018-09-03T12:46:49.684Z,98166.23
2018-09-03T12:49:19.254Z,98166.77
2018-09-03T12:51:48.825Z,98157.66
2018-09-03T12:54:18.671Z,98155.01
2018-09-03T12:56:48.474Z,98153.36
2018-09-03T12:59:18.046Z,98150.03
2018-09-03T13:01:47.572Z,98152.01
2018-09-03T13:04:17.133Z,98142.88
2018-09-03T13:06:46.708Z,98132.44
2018-09-03T13:09:16.265Z,98138.88
2018-09-03T13:11:46.048Z,98138.70
2018-09-03T13:14:15.748Z,98139.05
2018-09-03T13:16:45.331Z,98145.66
2018-09-03T13:19:15.331Z,98137.19
2018-09-03T13:21:45.131Z,98139.84
2018-09-03T13:24:14.885Z,98138.00
2018-09-03T13:26:44.923Z,98132.05
2018-09-03T13:29:14.522Z,98126.56
2018-09-03T13:31:44.439Z,98119.41
2018-09-03T13:34:14.187Z,98111.58
2018-09-03T13:36:43.732Z,98112.86
2018-09-03T13:39:13.439Z,98112.51
2018-09-03T13:41:43.139Z,98109.69
2018-09-03T13:44:13.049Z,98101.33
2018-09-03T13:46:42.650Z,98102.98
2018-09-03T13:49:12.363Z,98105.25
2018-09-03T13:51:42.009Z,98108.13
2018-09-03T13:54:11.575Z,98105.81
2018-09-03T13:56:41.463Z,98105.25
2018-09-03T13:59:11.396Z,98100.84
2018-09-03T14:01:41.034Z,98102.30
2018-09-03T14:04:10.747Z,98096.17
2018-09-03T14:06:40.355Z,98096.64
2018-09-03T14:09:10.359Z,98095.59
2018-09-03T14:11:40.242Z,98087.27
2018-09-03T14:14:09.980Z,98088.06
2018-09-03T14:16:39.557Z,98081.73
2018-09-03T14:19:09.235Z,98084.52
2018-09-03T14:21:38.806Z,98080.87
2018-09-03T14:24:08.733Z,98078.20
2018-09-03T14:26:38.259Z,98074.02
2018-09-03T14:29:07.807Z,98078.14
2018-09-03T14:31:37.579Z,98075.00
2018-09-03T14:34:07.692Z,98074.58
2018-09-03T14:36:37.250Z,98069.88
2018-09-03T14:39:10.484Z,98072.20
2018-09-03T14:41:40.035Z,98071.18
2018-09-03T14:44:10.235Z,98071.55
2018-09-03T14:46:39.792Z,98067.33
2018-09-03T14:49:09.331Z,98064.45
2018-09-03T14:51:38.898Z,98064.06
2018-09-03T14:54:08.443Z,98058.64
2018-09-03T14:56:38.023Z,98052.82
2018-09-03T14:59:07.611Z,98061.59
2018-09-03T15:01:37.174Z,98059.00
2018-09-03T15:04:06.862Z,98058.63
2018-09-03T15:06:36.531Z,98053.20
2018-09-03T15:09:08.767Z,98058.66
2018-09-03T15:11:38.342Z,98060.24
2018-09-03T15:14:08.312Z,98065.08
2018-09-03T15:16:37.859Z,98056.45
2018-09-03T15:19:07.806Z,98052.68
2018-09-03T15:21:37.402Z,98051.98
2018-09-03T15:24:06.941Z,98054.79
2018-09-03T15:26:36.739Z,98048.50
2018-09-03T15:29:06.755Z,98055.97
2018-09-03T15:31:36.459Z,98062.30
2018-09-03T15:34:06.504Z,98059.15
2018-09-03T15:36:36.146Z,98057.12
2018-09-03T15:39:10.251Z,98054.72
2018-09-03T15:41:39.836Z,98049.28
2018-09-03T15:44:09.600Z,98046.47
2018-09-03T15:46:39.432Z,98043.80
2018-09-03T15:49:09.027Z,98049.58
2018-09-03T15:51:38.739Z,98049.75
2018-09-03T15:54:08.931Z,98039.47
2018-09-03T15:56:38.727Z,98041.17
2018-09-03T15:59:08.351Z,98039.77
2018-09-03T16:01:37.980Z,98038.62
2018-09-03T16:04:07.647Z,98040.14
2018-09-03T16:06:37.220Z,98044.24
2018-09-03T16:09:10.466Z,98043.36
2018-09-03T16:11:40.178Z,98039.73
2018-09-03T16:14:10.215Z,98042.06
2018-09-03T16:16:39.731Z,98044.24
2018-09-03T16:19:09.455Z,98039.59
2018-09-03T16:21:39.240Z,98041.43
2018-09-03T16:24:08.988Z,98039.51
2018-09-03T16:26:38.544Z,98029.41
2018-09-03T16:29:08.573Z,98034.40
2018-09-03T16:31:38.170Z,98037.25
2018-09-03T16:34:07.771Z,98035.65
2018-09-03T16:36:37.399Z,98036.34
2018-09-03T16:39:07.987Z,98041.70
2018-09-03T16:41:37.924Z,98043.77
2018-09-03T16:44:07.553Z,98043.83
2018-09-03T16:46:37.287Z,98046.86
2018-09-03T16:49:07.078Z,98043.77
2018-09-03T16:51:36.931Z,98041.86
2018-09-03T16:54:07.342Z,98054.73
2018-09-03T16:56:36.953Z,98049.19
2018-09-03T16:59:06.475Z,98050.57
2018-09-03T17:01:36.101Z,98054.17
2018-09-03T17:04:06.356Z,98059.41
2018-09-03T17:06:36.359Z,98056.43
2018-09-03T17:09:06.550Z,98056.52
2018-09-03T17:11:36.085Z,98060.23
2018-09-03T17:14:06.055Z,98061.94
2018-09-03T17:16:35.899Z,98064.69
2018-09-03T17:19:06.227Z,98068.58
2018-09-03T17:21:35.886Z,98067.82
2018-09-03T17:24:05.496Z,98066.16
2018-09-03T17:26:35.155Z,98066.20
2018-09-03T17:29:04.823Z,98063.75
2018-09-03T17:31:34.481Z,98069.23
2018-09-03T17:34:04.055Z,98068.92
2018-09-03T17:36:33.644Z,98073.58
2018-09-03T17:39:03.280Z,98073.27
2018-09-03T17:41:32.911Z,98077.59
2018-09-03T17:44:02.581Z,98082.22
2018-09-03T17:46:32.339Z,98075.09
2018-09-03T17:49:01.988Z,98072.64
2018-09-03T17:51:31.572Z,98074.47
2018-09-03T17:54:01.156Z,98080.60
2018-09-03T17:56:30.962Z,98082.91
2018-09-03T17:59:00.646Z,98088.37
2018-09-03T18:01:30.492Z,98088.87
2018-09-03T18:04:00.175Z,98088.37
2018-09-03T18:06:29.751Z,98081.91
2018-09-03T18:08:59.451Z,98083.89
2018-09-03T18:11:29.063Z,98085.89
2018-09-03T18:13:58.624Z,98083.06
2018-09-03T18:16:28.292Z,98080.09
2018-09-03T18:18:57.975Z,98076.44
2018-09-03T18:21:27.531Z,98081.58
2018-09-03T18:23:57.154Z,98084.23
2018-09-03T18:26:26.763Z,98083.72
2018-09-03T18:28:56.363Z,98089.53
2018-09-03T18:31:25.964Z,98092.17
2018-09-03T18:33:55.512Z,98092.02
2018-09-03T18:36:25.134Z,98101.13
2018-09-03T18:38:54.715Z,98102.61
2018-09-03T18:41:24.603Z,98101.96
2018-09-03T18:43:54.311Z,98104.59
2018-09-03T18:46:23.882Z,98102.78
2018-09-03T18:48:53.467Z,98109.89
2018-09-03T18:51:23.236Z,98112.38
2018-09-03T18:53:53.038Z,98102.27
2018-09-03T18:56:22.879Z,98116.66
2018-09-03T18:58:52.472Z,98123.27
2018-09-03T19:01:25.117Z,98124.92
2018-09-03T19:03:56.772Z,98126.55
2018-09-03T19:06:26.423Z,98128.52
2018-09-03T19:08:56.340Z,98121.34
2018-09-03T19:11:26.885Z,98124.47
2018-09-03T19:13:56.754Z,98120.66
2018-09-03T19:16:26.361Z,98126.28
2018-09-03T19:18:55.992Z,98119.13
2018-09-03T19:21:25.935Z,98130.38
2018-09-03T19:23:55.581Z,98132.53
2018-09-03T19:26:25.244Z,98131.99
2018-09-03T19:28:54.871Z,98134.64
2018-09-03T19:31:24.754Z,98129.98
2018-09-03T19:33:54.407Z,98130.80
2018-09-03T19:36:24.016Z,98131.28
2018-09-03T19:38:53.731Z,98131.75
2018-09-03T19:41:23.381Z,98137.04
2018-09-03T19:43:53.095Z,98129.39
2018-09-03T19:46:22.958Z,98136.12
2018-09-03T19:48:52.834Z,98127.64
2018-09-03T19:51:23.001Z,98132.73
2018-09-03T19:53:52.587Z,98131.66
2018-09-03T19:56:22.216Z,98128.15
2018-09-03T19:58:51.834Z,98123.98
2018-09-03T20:01:21.520Z,98129.89
2018-09-03T20:03:51.164Z,98128.56
2018-09-03T20:06:20.783Z,98128.02
2018-09-03T20:08:50.391Z,98126.53
2018-09-03T20:11:20.009Z,98130.61
2018-09-03T20:13:49.544Z,98128.93
2018-09-03T20:16:19.266Z,98130.05
2018-09-03T20:18:48.847Z,98122.02
2018-09-03T20:21:18.487Z,98124.95
2018-09-03T20:23:49.060Z,98124.39
2018-09-03T20:26:18.640Z,98125.16
2018-09-03T20:28:49.932Z,98133.58
2018-09-03T20:31:19.554Z,98128.84
2018-09-03T20:33:49.264Z,98130.27
2018-09-03T20:36:18.942Z,98134.63
2018-09-03T20:38:48.636Z,98128.48
2018-09-03T20:41:18.260Z,98128.63
2018-09-03T20:43:47.867Z,98134.36
2018-09-03T20:46:17.573Z,98128.70
2018-09-03T20:48:47.411Z,98124.22
2018-09-03T20:51:17.025Z,98128.98
2018-09-03T20:53:46.600Z,98123.64
2018-09-03T20:56:16.268Z,98129.22
2018-09-03T20:58:46.219Z,98126.52
2018-09-03T21:01:15.815Z,98130.31
2018-09-03T21:03:45.456Z,98127.46
2018-09-03T21:06:15.029Z,98125.77
2018-09-03T21:08:44.710Z,98125.56
2018-09-03T21:11:14.357Z,98121.69
2018-09-03T21:13:43.937Z,98120.05
2018-09-03T21:16:13.520Z,98123.95
2018-09-03T21:18:43.415Z,98125.55
2018-09-03T21:21:13.174Z,98122.89
2018-09-03T21:23:42.748Z,98125.31
2018-09-03T21:26:12.557Z,98122.47
2018-09-03T21:28:42.297Z,98125.55
2018-09-03T21:31:11.955Z,98130.94
2018-09-03T21:33:41.561Z,98132.54
2018-09-03T21:36:11.245Z,98132.47
2018-09-03T21:38:40.882Z,98131.44
2018-09-03T21:41:11.135Z,98131.55
2018-09-03T21:43:40.734Z,98126.28
2018-09-03T21:46:10.539Z,98127.74
2018-09-03T21:48:40.094Z,98130.34
2018-09-03T21:51:09.666Z,98125.83
2018-09-03T21:53:39.231Z,98125.97
2018-09-03T21:56:08.818Z,98126.75
2018-09-03T21:58:38.382Z,98119.95
2018-09-03T22:01:08.147Z,98115.82
2018-09-03T22:03:37.674Z,98109.52
2018-09-03T22:06:07.274Z,98115.89
2018-09-03T22:08:36.949Z,98117.36
2018-09-03T22:11:07.042Z,98127.36
2018-09-03T22:13:36.684Z,98128.61
2018-09-03T22:16:08.152Z,98120.16
2018-09-03T22:18:39.062Z,98124.72
2018-09-03T22:21:09.159Z,98119.13
2018-09-03T22:23:39.342Z,98118.23
2018-09-03T22:26:09.003Z,98115.06
2018-09-03T22:28:38.778Z,98115.20
2018-09-03T22:31:08.335Z,98110.08
2018-09-03T22:33:37.902Z,98114.64
2018-09-03T22:36:07.979Z,98109.19
2018-09-03T22:38:37.550Z,98110.78
2018-09-03T22:41:07.451Z,98113.70
2018-09-03T22:43:37.011Z,98111.13
2018-09-03T22:46:06.679Z,98115.36
2018-09-03T22:48:36.395Z,98113.36
2018-09-03T22:51:06.314Z,98112.19
2018-09-03T22:53:35.870Z,98113.28
2018-09-03T22:56:05.443Z,98112.11
2018-09-03T22:58:34.992Z,98113.02
2018-09-03T23:01:04.564Z,98113.02
2018-09-03T23:03:34.082Z,98118.07
2018-09-03T23:06:03.662Z,98117.03
2018-09-03T23:08:33.199Z,98115.86
2018-09-03T23:11:02.767Z,98114.13
2018-09-03T23:13:32.506Z,98121.87
2018-09-03T23:16:02.066Z,98118.87
2018-09-03T23:18:31.811Z,98107.99
2018-09-03T23:21:01.318Z,98109.31
2018-09-03T23:23:31.064Z,98111.75
2018-09-03T23:26:00.607Z,98113.20
2018-09-03T23:28:30.152Z,98112.71
2018-09-03T23:30:59.693Z,98113.20
2018-09-03T23:33:29.215Z,98115.62
2018-09-03T23:35:58.758Z,98112.30
2018-09-03T23:38:28.348Z,98104.55
2018-09-03T23:40:57.898Z,98103.97
2018-09-03T23:43:27.708Z,98105.09
2018-09-03T23:45:57.260Z,98101.92
2018-09-03T23:48:26.811Z,98100.88
2018-09-03T23:50:56.394Z,98103.20
2018-09-03T23:53:25.947Z,98103.97
2018-09-03T23:55:56.093Z,98105.06
2018-09-03T23:58:25.659Z,98093.86
